sensor_id;sensor_type;location;lat;lon;timestamp;temperature;humidity
65568;DHT22;52211;50.154;8.682;2023-05-02T00:01:37;17.60;44.40
65568;DHT22;52211;50.154;8.682;2023-05-02T00:04:09;17.50;44.40
65568;DHT22;52211;50.154;8.682;2023-05-02T00:06:39;17.50;44.60
65568;DHT22;52211;50.154;8.682;2023-05-02T00:09:11;17.50;44.50
65568;DHT22;52211;50.154;8.682;2023-05-02T00:11:40;17.50;44.70
65568;DHT22;52211;50.154;8.682;2023-05-02T00:14:10;17.50;44.60
65568;DHT22;52211;50.154;8.682;2023-05-02T00:16:37;17.50;44.60
65568;DHT22;52211;50.154;8.682;2023-05-02T00:19:11;17.40;44.60
65568;DHT22;52211;50.154;8.682;2023-05-02T00:21:46;17.40;44.70
65568;DHT22;52211;50.154;8.682;2023-05-02T00:24:17;17.40;45.10
65568;DHT22;52211;50.154;8.682;2023-05-02T00:26:44;17.40;44.80
65568;DHT22;52211;50.154;8.682;2023-05-02T00:29:15;17.30;44.90
65568;DHT22;52211;50.154;8.682;2023-05-02T00:31:44;17.30;44.90
65568;DHT22;52211;50.154;8.682;2023-05-02T00:34:11;17.30;45.00
65568;DHT22;52211;50.154;8.682;2023-05-02T00:36:42;17.30;45.10
65568;DHT22;52211;50.154;8.682;2023-05-02T00:39:11;17.30;45.20
65568;DHT22;52211;50.154;8.682;2023-05-02T00:41:43;17.30;45.20
65568;DHT22;52211;50.154;8.682;2023-05-02T00:44:13;17.30;45.30
65568;DHT22;52211;50.154;8.682;2023-05-02T00:46:42;17.20;45.20
65568;DHT22;52211;50.154;8.682;2023-05-02T00:49:14;17.30;45.40
65568;DHT22;52211;50.154;8.682;2023-05-02T00:51:43;17.20;45.50
65568;DHT22;52211;50.154;8.682;2023-05-02T00:54:13;17.20;45.40
65568;DHT22;52211;50.154;8.682;2023-05-02T00:56:40;17.20;45.40
65568;DHT22;52211;50.154;8.682;2023-05-02T00:59:13;17.20;45.50
65568;DHT22;52211;50.154;8.682;2023-05-02T01:02:02;17.20;45.50
65568;DHT22;52211;50.154;8.682;2023-05-02T01:04:49;17.10;46.30
65568;DHT22;52211;50.154;8.682;2023-05-02T01:07:45;17.10;46.20
65568;DHT22;52211;50.154;8.682;2023-05-02T01:10:51;17.10;46.40
65568;DHT22;52211;50.154;8.682;2023-05-02T01:13:51;17.10;46.50
65568;DHT22;52211;50.154;8.682;2023-05-02T01:16:23;17.00;45.60
65568;DHT22;52211;50.154;8.682;2023-05-02T01:18:51;16.90;45.70
65568;DHT22;52211;50.154;8.682;2023-05-02T01:21:26;17.00;45.90
65568;DHT22;52211;50.154;8.682;2023-05-02T01:24:12;16.80;46.00
65568;DHT22;52211;50.154;8.682;2023-05-02T01:27:16;16.80;46.70
65568;DHT22;52211;50.154;8.682;2023-05-02T01:30:18;16.80;46.80
65568;DHT22;52211;50.154;8.682;2023-05-02T01:32:50;16.70;46.00
65568;DHT22;52211;50.154;8.682;2023-05-02T01:35:20;16.80;46.20
65568;DHT22;52211;50.154;8.682;2023-05-02T01:37:49;16.70;46.20
65568;DHT22;52211;50.154;8.682;2023-05-02T01:40:19;16.70;46.30
65568;DHT22;52211;50.154;8.682;2023-05-02T01:42:54;16.60;46.30
65568;DHT22;52211;50.154;8.682;2023-05-02T01:45:29;16.60;46.40
65568;DHT22;52211;50.154;8.682;2023-05-02T01:47:59;16.60;46.50
65568;DHT22;52211;50.154;8.682;2023-05-02T01:50:31;16.60;46.60
65568;DHT22;52211;50.154;8.682;2023-05-02T01:52:59;16.60;46.60
65568;DHT22;52211;50.154;8.682;2023-05-02T01:55:30;16.60;46.70
65568;DHT22;52211;50.154;8.682;2023-05-02T01:57:59;16.60;46.80
65568;DHT22;52211;50.154;8.682;2023-05-02T02:00:30;16.50;46.80
65568;DHT22;52211;50.154;8.682;2023-05-02T02:03:07;16.50;46.90
65568;DHT22;52211;50.154;8.682;2023-05-02T02:05:36;16.60;47.00
65568;DHT22;52211;50.154;8.682;2023-05-02T02:08:07;16.50;46.90
65568;DHT22;52211;50.154;8.682;2023-05-02T02:10:39;16.60;47.70
65568;DHT22;52211;50.154;8.682;2023-05-02T02:13:16;16.50;47.20
65568;DHT22;52211;50.154;8.682;2023-05-02T02:15:58;16.50;47.60
65568;DHT22;52211;50.154;8.682;2023-05-02T02:18:28;16.50;47.50
65568;DHT22;52211;50.154;8.682;2023-05-02T02:21:01;16.50;47.20
65568;DHT22;52211;50.154;8.682;2023-05-02T02:23:39;16.50;47.30
65568;DHT22;52211;50.154;8.682;2023-05-02T02:26:11;16.50;47.40
65568;DHT22;52211;50.154;8.682;2023-05-02T02:28:44;16.50;47.40
65568;DHT22;52211;50.154;8.682;2023-05-02T02:31:13;16.50;47.60
65568;DHT22;52211;50.154;8.682;2023-05-02T02:33:40;16.50;47.50
65568;DHT22;52211;50.154;8.682;2023-05-02T02:36:32;16.50;47.50
65568;DHT22;52211;50.154;8.682;2023-05-02T02:39:13;16.50;48.20
65568;DHT22;52211;50.154;8.682;2023-05-02T02:47:31;16.50;47.90
65568;DHT22;52211;50.154;8.682;2023-05-02T02:53:05;16.40;48.00
65568;DHT22;52211;50.154;8.682;2023-05-02T02:56:04;16.40;48.20
65568;DHT22;52211;50.154;8.682;2023-05-02T03:01:17;16.40;47.90
65568;DHT22;52211;50.154;8.682;2023-05-02T03:03:48;16.40;47.80
65568;DHT22;52211;50.154;8.682;2023-05-02T03:06:25;16.40;47.90
65568;DHT22;52211;50.154;8.682;2023-05-02T03:08:53;16.40;48.10
65568;DHT22;52211;50.154;8.682;2023-05-02T03:11:30;16.40;47.90
65568;DHT22;52211;50.154;8.682;2023-05-02T03:14:00;16.30;47.90
65568;DHT22;52211;50.154;8.682;2023-05-02T03:16:40;16.30;48.00
65568;DHT22;52211;50.154;8.682;2023-05-02T03:19:12;16.30;48.80
65568;DHT22;52211;50.154;8.682;2023-05-02T03:21:43;16.30;48.20
65568;DHT22;52211;50.154;8.682;2023-05-02T03:24:15;16.30;48.30
65568;DHT22;52211;50.154;8.682;2023-05-02T03:26:46;16.20;48.30
65568;DHT22;52211;50.154;8.682;2023-05-02T03:29:20;16.20;48.40
65568;DHT22;52211;50.154;8.682;2023-05-02T03:31:47;16.20;48.70
65568;DHT22;52211;50.154;8.682;2023-05-02T03:34:18;16.20;48.50
65568;DHT22;52211;50.154;8.682;2023-05-02T03:36:53;16.20;48.60
65568;DHT22;52211;50.154;8.682;2023-05-02T03:39:20;16.20;48.60
65568;DHT22;52211;50.154;8.682;2023-05-02T03:41:47;16.20;48.70
65568;DHT22;52211;50.154;8.682;2023-05-02T03:44:17;16.20;48.70
65568;DHT22;52211;50.154;8.682;2023-05-02T03:46:46;16.20;48.70
65568;DHT22;52211;50.154;8.682;2023-05-02T03:49:17;16.30;48.80
65568;DHT22;52211;50.154;8.682;2023-05-02T03:51:47;16.30;48.80
65568;DHT22;52211;50.154;8.682;2023-05-02T03:54:19;16.20;48.70
65568;DHT22;52211;50.154;8.682;2023-05-02T03:56:46;16.20;48.80
65568;DHT22;52211;50.154;8.682;2023-05-02T03:59:21;16.30;48.80
65568;DHT22;52211;50.154;8.682;2023-05-02T04:01:51;16.20;48.70
65568;DHT22;52211;50.154;8.682;2023-05-02T04:04:25;16.20;48.70
65568;DHT22;52211;50.154;8.682;2023-05-02T04:07:02;16.30;48.80
65568;DHT22;52211;50.154;8.682;2023-05-02T04:09:33;16.20;49.00
65568;DHT22;52211;50.154;8.682;2023-05-02T04:12:06;16.20;48.90
65568;DHT22;52211;50.154;8.682;2023-05-02T04:14:38;16.20;48.90
65568;DHT22;52211;50.154;8.682;2023-05-02T04:17:12;16.20;48.90
65568;DHT22;52211;50.154;8.682;2023-05-02T04:19:45;16.20;49.10
65568;DHT22;52211;50.154;8.682;2023-05-02T04:22:15;16.20;49.00
65568;DHT22;52211;50.154;8.682;2023-05-02T04:24:50;16.10;49.00
65568;DHT22;52211;50.154;8.682;2023-05-02T04:27:23;16.10;49.10
65568;DHT22;52211;50.154;8.682;2023-05-02T04:29:59;16.10;49.10
65568;DHT22;52211;50.154;8.682;2023-05-02T04:32:31;16.10;49.30
65568;DHT22;52211;50.154;8.682;2023-05-02T04:35:06;16.00;49.10
65568;DHT22;52211;50.154;8.682;2023-05-02T04:37:36;16.00;49.30
65568;DHT22;52211;50.154;8.682;2023-05-02T04:40:04;16.00;49.30
65568;DHT22;52211;50.154;8.682;2023-05-02T04:42:36;16.00;49.30
65568;DHT22;52211;50.154;8.682;2023-05-02T04:45:11;16.00;49.40
65568;DHT22;52211;50.154;8.682;2023-05-02T04:47:41;16.00;49.50
65568;DHT22;52211;50.154;8.682;2023-05-02T04:50:09;16.00;49.50
65568;DHT22;52211;50.154;8.682;2023-05-02T04:52:36;16.00;49.60
65568;DHT22;52211;50.154;8.682;2023-05-02T04:55:05;16.00;49.60
65568;DHT22;52211;50.154;8.682;2023-05-02T04:57:32;16.00;49.70
65568;DHT22;52211;50.154;8.682;2023-05-02T05:00:03;16.00;49.60
65568;DHT22;52211;50.154;8.682;2023-05-02T05:02:36;16.00;49.70
65568;DHT22;52211;50.154;8.682;2023-05-02T05:05:07;16.00;49.80
65568;DHT22;52211;50.154;8.682;2023-05-02T05:07:37;16.10;49.80
65568;DHT22;52211;50.154;8.682;2023-05-02T05:10:07;16.10;49.70
65568;DHT22;52211;50.154;8.682;2023-05-02T05:12:43;16.10;49.80
65568;DHT22;52211;50.154;8.682;2023-05-02T05:15:12;16.10;49.80
65568;DHT22;52211;50.154;8.682;2023-05-02T05:17:43;16.10;49.90
65568;DHT22;52211;50.154;8.682;2023-05-02T05:20:13;16.00;49.80
65568;DHT22;52211;50.154;8.682;2023-05-02T05:22:43;16.00;49.80
65568;DHT22;52211;50.154;8.682;2023-05-02T05:25:15;16.10;49.80
65568;DHT22;52211;50.154;8.682;2023-05-02T05:27:48;16.00;49.80
65568;DHT22;52211;50.154;8.682;2023-05-02T05:30:15;16.00;49.90
65568;DHT22;52211;50.154;8.682;2023-05-02T05:32:42;16.00;49.90
65568;DHT22;52211;50.154;8.682;2023-05-02T05:35:14;16.00;49.90
65568;DHT22;52211;50.154;8.682;2023-05-02T05:37:45;16.00;50.10
65568;DHT22;52211;50.154;8.682;2023-05-02T05:40:18;16.10;50.10
65568;DHT22;52211;50.154;8.682;2023-05-02T05:42:54;16.00;50.10
65568;DHT22;52211;50.154;8.682;2023-05-02T05:45:28;16.00;50.10
65568;DHT22;52211;50.154;8.682;2023-05-02T05:47:55;16.00;50.10
65568;DHT22;52211;50.154;8.682;2023-05-02T05:50:27;16.00;50.10
65568;DHT22;52211;50.154;8.682;2023-05-02T05:52:54;16.10;50.20
65568;DHT22;52211;50.154;8.682;2023-05-02T05:55:23;16.00;50.20
65568;DHT22;52211;50.154;8.682;2023-05-02T05:57:55;16.10;50.30
65568;DHT22;52211;50.154;8.682;2023-05-02T06:00:27;16.10;50.30
65568;DHT22;52211;50.154;8.682;2023-05-02T06:02:56;16.10;50.30
65568;DHT22;52211;50.154;8.682;2023-05-02T06:05:26;16.10;50.40
65568;DHT22;52211;50.154;8.682;2023-05-02T06:07:56;16.10;50.40
65568;DHT22;52211;50.154;8.682;2023-05-02T06:10:25;16.20;50.40
65568;DHT22;52211;50.154;8.682;2023-05-02T06:12:53;16.20;50.40
65568;DHT22;52211;50.154;8.682;2023-05-02T06:15:24;16.10;50.40
65568;DHT22;52211;50.154;8.682;2023-05-02T06:17:51;16.20;50.50
65568;DHT22;52211;50.154;8.682;2023-05-02T06:20:18;16.20;50.50
65568;DHT22;52211;50.154;8.682;2023-05-02T06:22:49;16.20;50.50
65568;DHT22;52211;50.154;8.682;2023-05-02T06:25:16;16.20;50.50
65568;DHT22;52211;50.154;8.682;2023-05-02T06:27:43;16.30;50.60
65568;DHT22;52211;50.154;8.682;2023-05-02T06:30:15;16.30;50.60
65568;DHT22;52211;50.154;8.682;2023-05-02T06:32:42;16.30;50.60
65568;DHT22;52211;50.154;8.682;2023-05-02T06:35:10;16.40;50.60
65568;DHT22;52211;50.154;8.682;2023-05-02T06:37:39;16.40;50.60
65568;DHT22;52211;50.154;8.682;2023-05-02T06:40:09;16.40;50.50
65568;DHT22;52211;50.154;8.682;2023-05-02T06:42:36;16.50;50.60
65568;DHT22;52211;50.154;8.682;2023-05-02T06:45:06;16.60;50.70
65568;DHT22;52211;50.154;8.682;2023-05-02T06:47:33;16.60;50.70
65568;DHT22;52211;50.154;8.682;2023-05-02T06:50:02;16.70;50.70
65568;DHT22;52211;50.154;8.682;2023-05-02T06:52:34;16.70;50.60
65568;DHT22;52211;50.154;8.682;2023-05-02T06:55:07;16.70;50.60
65568;DHT22;52211;50.154;8.682;2023-05-02T06:57:36;16.80;50.50
65568;DHT22;52211;50.154;8.682;2023-05-02T07:00:04;16.80;50.60
65568;DHT22;52211;50.154;8.682;2023-05-02T07:02:33;16.80;50.50
65568;DHT22;52211;50.154;8.682;2023-05-02T07:05:02;16.90;50.50
65568;DHT22;52211;50.154;8.682;2023-05-02T07:07:30;16.90;50.50
65568;DHT22;52211;50.154;8.682;2023-05-02T07:09:59;16.90;50.40
65568;DHT22;52211;50.154;8.682;2023-05-02T07:12:31;16.90;50.50
65568;DHT22;52211;50.154;8.682;2023-05-02T07:15:00;16.90;50.40
65568;DHT22;52211;50.154;8.682;2023-05-02T07:17:27;16.90;50.40
65568;DHT22;52211;50.154;8.682;2023-05-02T07:19:54;17.00;50.50
65568;DHT22;52211;50.154;8.682;2023-05-02T07:22:24;17.00;50.70
65568;DHT22;52211;50.154;8.682;2023-05-02T07:25:03;17.20;50.80
65568;DHT22;52211;50.154;8.682;2023-05-02T07:27:31;17.20;51.00
65568;DHT22;52211;50.154;8.682;2023-05-02T07:29:58;17.30;50.60
65568;DHT22;52211;50.154;8.682;2023-05-02T07:32:30;17.40;50.60
65568;DHT22;52211;50.154;8.682;2023-05-02T07:34:58;17.50;50.50
65568;DHT22;52211;50.154;8.682;2023-05-02T07:37:31;17.60;50.40
65568;DHT22;52211;50.154;8.682;2023-05-02T07:40:05;17.70;50.30
65568;DHT22;52211;50.154;8.682;2023-05-02T07:42:33;17.70;50.00
65568;DHT22;52211;50.154;8.682;2023-05-02T07:45:03;17.80;49.90
65568;DHT22;52211;50.154;8.682;2023-05-02T07:47:35;17.80;49.80
65568;DHT22;52211;50.154;8.682;2023-05-02T07:50:07;17.90;49.80
65568;DHT22;52211;50.154;8.682;2023-05-02T07:52:37;17.90;49.70
65568;DHT22;52211;50.154;8.682;2023-05-02T07:55:09;17.90;49.70
65568;DHT22;52211;50.154;8.682;2023-05-02T07:57:36;17.90;49.60
65568;DHT22;52211;50.154;8.682;2023-05-02T08:00:03;17.80;49.60
65568;DHT22;52211;50.154;8.682;2023-05-02T08:02:43;17.90;49.60
65568;DHT22;52211;50.154;8.682;2023-05-02T08:05:15;17.80;49.50
65568;DHT22;52211;50.154;8.682;2023-05-02T08:07:47;17.80;49.60
65568;DHT22;52211;50.154;8.682;2023-05-02T08:10:16;17.80;49.60
65568;DHT22;52211;50.154;8.682;2023-05-02T08:12:46;17.80;49.60
65568;DHT22;52211;50.154;8.682;2023-05-02T08:15:15;17.70;49.50
65568;DHT22;52211;50.154;8.682;2023-05-02T08:17:42;17.70;49.60
65568;DHT22;52211;50.154;8.682;2023-05-02T08:20:11;17.70;49.70
65568;DHT22;52211;50.154;8.682;2023-05-02T08:22:41;17.70;49.70
65568;DHT22;52211;50.154;8.682;2023-05-02T08:25:09;17.70;49.70
65568;DHT22;52211;50.154;8.682;2023-05-02T08:27:39;17.70;49.80
65568;DHT22;52211;50.154;8.682;2023-05-02T08:30:06;17.70;49.80
65568;DHT22;52211;50.154;8.682;2023-05-02T08:32:36;17.80;49.80
65568;DHT22;52211;50.154;8.682;2023-05-02T08:35:03;17.80;49.70
65568;DHT22;52211;50.154;8.682;2023-05-02T08:37:32;17.90;49.70
65568;DHT22;52211;50.154;8.682;2023-05-02T08:39:59;17.90;49.60
65568;DHT22;52211;50.154;8.682;2023-05-02T08:42:32;17.90;49.60
65568;DHT22;52211;50.154;8.682;2023-05-02T08:45:03;17.90;49.60
65568;DHT22;52211;50.154;8.682;2023-05-02T08:47:35;17.90;49.50
65568;DHT22;52211;50.154;8.682;2023-05-02T08:50:05;17.90;49.40
65568;DHT22;52211;50.154;8.682;2023-05-02T08:52:33;17.90;49.50
65568;DHT22;52211;50.154;8.682;2023-05-02T08:55:03;17.90;49.50
65568;DHT22;52211;50.154;8.682;2023-05-02T08:57:34;17.90;49.50
65568;DHT22;52211;50.154;8.682;2023-05-02T09:00:03;17.90;49.40
65568;DHT22;52211;50.154;8.682;2023-05-02T09:05:56;17.90;49.60
65568;DHT22;52211;50.154;8.682;2023-05-02T09:08:39;18.00;50.30
65568;DHT22;52211;50.154;8.682;2023-05-02T09:11:11;18.00;49.60
65568;DHT22;52211;50.154;8.682;2023-05-02T09:16:24;18.10;49.60
65568;DHT22;52211;50.154;8.682;2023-05-02T09:18:58;18.20;49.40
65568;DHT22;52211;50.154;8.682;2023-05-02T09:21:34;18.20;49.40
65568;DHT22;52211;50.154;8.682;2023-05-02T09:24:17;18.20;49.40
65568;DHT22;52211;50.154;8.682;2023-05-02T09:27:04;18.20;49.30
65568;DHT22;52211;50.154;8.682;2023-05-02T09:29:32;18.30;49.30
65568;DHT22;52211;50.154;8.682;2023-05-02T09:32:05;18.40;49.20
65568;DHT22;52211;50.154;8.682;2023-05-02T09:34:35;18.40;49.10
65568;DHT22;52211;50.154;8.682;2023-05-02T09:37:04;18.50;49.10
65568;DHT22;52211;50.154;8.682;2023-05-02T09:39:38;18.50;49.00
65568;DHT22;52211;50.154;8.682;2023-05-02T09:42:05;18.60;48.80
65568;DHT22;52211;50.154;8.682;2023-05-02T09:44:37;18.60;48.70
65568;DHT22;52211;50.154;8.682;2023-05-02T09:47:04;18.70;48.60
65568;DHT22;52211;50.154;8.682;2023-05-02T09:49:45;18.70;48.70
65568;DHT22;52211;50.154;8.682;2023-05-02T09:52:16;18.80;48.60
65568;DHT22;52211;50.154;8.682;2023-05-02T09:54:44;18.90;48.60
65568;DHT22;52211;50.154;8.682;2023-05-02T09:57:20;19.00;48.70
65568;DHT22;52211;50.154;8.682;2023-05-02T09:59:57;19.10;48.70
65568;DHT22;52211;50.154;8.682;2023-05-02T10:02:29;19.20;48.40
65568;DHT22;52211;50.154;8.682;2023-05-02T10:05:05;19.30;48.30
65568;DHT22;52211;50.154;8.682;2023-05-02T10:07:36;19.40;48.10
65568;DHT22;52211;50.154;8.682;2023-05-02T10:10:11;19.50;48.00
65568;DHT22;52211;50.154;8.682;2023-05-02T10:12:45;19.50;47.90
65568;DHT22;52211;50.154;8.682;2023-05-02T10:15:20;19.60;48.00
65568;DHT22;52211;50.154;8.682;2023-05-02T10:17:51;19.60;47.90
65568;DHT22;52211;50.154;8.682;2023-05-02T10:20:31;19.60;47.80
65568;DHT22;52211;50.154;8.682;2023-05-02T10:23:00;19.60;47.90
65568;DHT22;52211;50.154;8.682;2023-05-02T10:25:28;19.70;48.10
65568;DHT22;52211;50.154;8.682;2023-05-02T10:27:58;19.70;48.00
65568;DHT22;52211;50.154;8.682;2023-05-02T10:30:25;19.80;48.10
65568;DHT22;52211;50.154;8.682;2023-05-02T10:32:52;19.90;48.00
65568;DHT22;52211;50.154;8.682;2023-05-02T10:35:20;20.00;47.90
65568;DHT22;52211;50.154;8.682;2023-05-02T10:37:51;20.10;47.80
65568;DHT22;52211;50.154;8.682;2023-05-02T10:40:21;20.20;47.50
65568;DHT22;52211;50.154;8.682;2023-05-02T10:42:53;20.20;47.30
65568;DHT22;52211;50.154;8.682;2023-05-02T10:45:36;20.30;47.20
65568;DHT22;52211;50.154;8.682;2023-05-02T10:48:17;20.20;47.00
65568;DHT22;52211;50.154;8.682;2023-05-02T10:50:59;20.20;47.10
65568;DHT22;52211;50.154;8.682;2023-05-02T10:53:37;20.30;47.30
65568;DHT22;52211;50.154;8.682;2023-05-02T10:56:12;20.50;47.30
65568;DHT22;52211;50.154;8.682;2023-05-02T10:58:41;20.60;47.20
65568;DHT22;52211;50.154;8.682;2023-05-02T11:06:34;21.20;46.60
65568;DHT22;52211;50.154;8.682;2023-05-02T11:11:56;21.50;45.70
65568;DHT22;52211;50.154;8.682;2023-05-02T11:19:29;22.00;45.60
65568;DHT22;52211;50.154;8.682;2023-05-02T11:24:55;22.20;45.00
65568;DHT22;52211;50.154;8.682;2023-05-02T11:30:00;22.30;43.80
65568;DHT22;52211;50.154;8.682;2023-05-02T11:38:01;22.30;43.40
65568;DHT22;52211;50.154;8.682;2023-05-02T11:40:37;22.30;42.90
65568;DHT22;52211;50.154;8.682;2023-05-02T11:43:14;22.30;43.70
65568;DHT22;52211;50.154;8.682;2023-05-02T11:45:43;22.20;43.00
65568;DHT22;52211;50.154;8.682;2023-05-02T11:48:17;22.20;43.70
65568;DHT22;52211;50.154;8.682;2023-05-02T11:50:49;22.30;43.40
65568;DHT22;52211;50.154;8.682;2023-05-02T11:53:24;22.30;43.20
65568;DHT22;52211;50.154;8.682;2023-05-02T11:56:03;22.20;43.20
65568;DHT22;52211;50.154;8.682;2023-05-02T11:58:33;22.10;43.00
65568;DHT22;52211;50.154;8.682;2023-05-02T12:01:15;22.10;43.20
65568;DHT22;52211;50.154;8.682;2023-05-02T12:03:42;22.00;42.60
65568;DHT22;52211;50.154;8.682;2023-05-02T12:06:15;21.90;43.00
65568;DHT22;52211;50.154;8.682;2023-05-02T12:08:46;21.80;42.80
65568;DHT22;52211;50.154;8.682;2023-05-02T12:11:19;21.60;42.90
65568;DHT22;52211;50.154;8.682;2023-05-02T12:13:49;21.60;43.10
65568;DHT22;52211;50.154;8.682;2023-05-02T12:16:20;21.40;43.00
65568;DHT22;52211;50.154;8.682;2023-05-02T12:18:50;21.40;43.20
65568;DHT22;52211;50.154;8.682;2023-05-02T12:21:26;21.30;43.30
65568;DHT22;52211;50.154;8.682;2023-05-02T12:23:57;21.30;43.10
65568;DHT22;52211;50.154;8.682;2023-05-02T12:26:30;21.10;43.20
65568;DHT22;52211;50.154;8.682;2023-05-02T12:28:59;21.10;43.30
65568;DHT22;52211;50.154;8.682;2023-05-02T12:31:30;21.10;43.40
65568;DHT22;52211;50.154;8.682;2023-05-02T12:34:01;21.10;43.40
65568;DHT22;52211;50.154;8.682;2023-05-02T12:36:32;21.10;43.50
65568;DHT22;52211;50.154;8.682;2023-05-02T12:39:09;21.10;43.50
65568;DHT22;52211;50.154;8.682;2023-05-02T12:41:40;21.10;43.50
65568;DHT22;52211;50.154;8.682;2023-05-02T12:44:16;21.20;43.60
65568;DHT22;52211;50.154;8.682;2023-05-02T12:47:01;21.20;43.60
65568;DHT22;52211;50.154;8.682;2023-05-02T12:49:31;21.30;43.60
65568;DHT22;52211;50.154;8.682;2023-05-02T12:51:58;21.30;43.50
65568;DHT22;52211;50.154;8.682;2023-05-02T12:54:27;21.40;43.50
65568;DHT22;52211;50.154;8.682;2023-05-02T12:56:59;21.50;43.40
65568;DHT22;52211;50.154;8.682;2023-05-02T12:59:34;21.50;43.30
65568;DHT22;52211;50.154;8.682;2023-05-02T13:02:04;21.60;43.40
65568;DHT22;52211;50.154;8.682;2023-05-02T13:04:36;21.70;43.50
65568;DHT22;52211;50.154;8.682;2023-05-02T13:07:06;21.80;43.20
65568;DHT22;52211;50.154;8.682;2023-05-02T13:09:38;21.90;43.00
65568;DHT22;52211;50.154;8.682;2023-05-02T13:12:07;21.80;42.80
65568;DHT22;52211;50.154;8.682;2023-05-02T13:14:36;21.90;42.70
65568;DHT22;52211;50.154;8.682;2023-05-02T13:17:05;21.80;42.60
65568;DHT22;52211;50.154;8.682;2023-05-02T13:19:34;21.70;42.50
65568;DHT22;52211;50.154;8.682;2023-05-02T13:22:02;21.60;42.50
65568;DHT22;52211;50.154;8.682;2023-05-02T13:24:32;21.50;42.50
65568;DHT22;52211;50.154;8.682;2023-05-02T13:26:59;21.40;42.60
65568;DHT22;52211;50.154;8.682;2023-05-02T13:29:28;21.30;42.70
65568;DHT22;52211;50.154;8.682;2023-05-02T13:31:57;21.20;42.70
65568;DHT22;52211;50.154;8.682;2023-05-02T13:34:29;21.10;42.70
65568;DHT22;52211;50.154;8.682;2023-05-02T13:36:58;21.10;42.80
65568;DHT22;52211;50.154;8.682;2023-05-02T13:39:30;21.00;42.80
65568;DHT22;52211;50.154;8.682;2023-05-02T13:42:01;21.00;42.70
65568;DHT22;52211;50.154;8.682;2023-05-02T13:44:31;20.90;42.80
65568;DHT22;52211;50.154;8.682;2023-05-02T13:47:04;20.90;42.90
65568;DHT22;52211;50.154;8.682;2023-05-02T13:49:35;20.80;42.80
65568;DHT22;52211;50.154;8.682;2023-05-02T13:52:02;20.80;42.80
65568;DHT22;52211;50.154;8.682;2023-05-02T13:54:30;20.80;42.80
65568;DHT22;52211;50.154;8.682;2023-05-02T13:56:57;20.80;42.80
65568;DHT22;52211;50.154;8.682;2023-05-02T13:59:26;20.80;42.90
65568;DHT22;52211;50.154;8.682;2023-05-02T14:01:55;20.90;43.00
65568;DHT22;52211;50.154;8.682;2023-05-02T14:04:24;20.90;42.90
65568;DHT22;52211;50.154;8.682;2023-05-02T14:06:56;20.90;42.90
65568;DHT22;52211;50.154;8.682;2023-05-02T14:09:23;20.90;42.80
65568;DHT22;52211;50.154;8.682;2023-05-02T14:11:52;21.00;43.00
65568;DHT22;52211;50.154;8.682;2023-05-02T14:14:20;21.20;43.00
65568;DHT22;52211;50.154;8.682;2023-05-02T14:16:50;21.30;42.70
65568;DHT22;52211;50.154;8.682;2023-05-02T14:19:19;21.30;42.50
65568;DHT22;52211;50.154;8.682;2023-05-02T14:21:48;21.50;42.20
65568;DHT22;52211;50.154;8.682;2023-05-02T14:24:15;21.60;42.40
65568;DHT22;52211;50.154;8.682;2023-05-02T14:26:46;21.70;42.50
65568;DHT22;52211;50.154;8.682;2023-05-02T14:29:13;22.10;42.90
65568;DHT22;52211;50.154;8.682;2023-05-02T14:31:40;22.40;42.70
65568;DHT22;52211;50.154;8.682;2023-05-02T14:34:09;22.80;42.70
65568;DHT22;52211;50.154;8.682;2023-05-02T14:36:36;23.30;42.50
65568;DHT22;52211;50.154;8.682;2023-05-02T14:39:05;23.80;42.20
65568;DHT22;52211;50.154;8.682;2023-05-02T14:41:34;24.20;41.60
65568;DHT22;52211;50.154;8.682;2023-05-02T14:44:04;24.50;40.80
65568;DHT22;52211;50.154;8.682;2023-05-02T14:46:31;24.70;40.20
65568;DHT22;52211;50.154;8.682;2023-05-02T14:48:58;24.70;39.70
65568;DHT22;52211;50.154;8.682;2023-05-02T14:51:25;24.60;39.40
65568;DHT22;52211;50.154;8.682;2023-05-02T14:53:52;24.50;39.30
65568;DHT22;52211;50.154;8.682;2023-05-02T14:56:19;24.40;39.20
65568;DHT22;52211;50.154;8.682;2023-05-02T14:58:52;24.20;39.10
65568;DHT22;52211;50.154;8.682;2023-05-02T15:01:21;24.00;38.80
65568;DHT22;52211;50.154;8.682;2023-05-02T15:03:51;23.70;38.90
65568;DHT22;52211;50.154;8.682;2023-05-02T15:06:32;23.50;39.00
65568;DHT22;52211;50.154;8.682;2023-05-02T15:09:03;23.40;39.20
65568;DHT22;52211;50.154;8.682;2023-05-02T15:11:30;23.20;39.30
65568;DHT22;52211;50.154;8.682;2023-05-02T15:13:57;23.10;39.30
65568;DHT22;52211;50.154;8.682;2023-05-02T15:16:29;22.80;39.10
65568;DHT22;52211;50.154;8.682;2023-05-02T15:18:56;22.70;39.20
65568;DHT22;52211;50.154;8.682;2023-05-02T15:21:25;22.60;39.50
65568;DHT22;52211;50.154;8.682;2023-05-02T15:23:54;22.50;39.60
65568;DHT22;52211;50.154;8.682;2023-05-02T15:26:24;22.40;39.70
65568;DHT22;52211;50.154;8.682;2023-05-02T15:28:59;22.40;39.60
65568;DHT22;52211;50.154;8.682;2023-05-02T15:31:28;22.40;39.60
65568;DHT22;52211;50.154;8.682;2023-05-02T15:33:55;22.40;40.00
65568;DHT22;52211;50.154;8.682;2023-05-02T15:36:28;22.50;39.90
65568;DHT22;52211;50.154;8.682;2023-05-02T15:38:56;22.80;40.20
65568;DHT22;52211;50.154;8.682;2023-05-02T15:41:27;23.00;40.20
65568;DHT22;52211;50.154;8.682;2023-05-02T15:43:59;23.40;40.20
65568;DHT22;52211;50.154;8.682;2023-05-02T15:46:29;23.80;40.30
65568;DHT22;52211;50.154;8.682;2023-05-02T15:49:00;24.20;39.80
65568;DHT22;52211;50.154;8.682;2023-05-02T15:51:30;24.60;39.60
65568;DHT22;52211;50.154;8.682;2023-05-02T15:54:01;25.00;39.40
65568;DHT22;52211;50.154;8.682;2023-05-02T15:56:28;25.40;39.00
65568;DHT22;52211;50.154;8.682;2023-05-02T15:58:57;25.70;38.70
65568;DHT22;52211;50.154;8.682;2023-05-02T16:01:27;26.10;38.30
65568;DHT22;52211;50.154;8.682;2023-05-02T16:03:54;26.30;38.00
65568;DHT22;52211;50.154;8.682;2023-05-02T16:06:25;26.60;37.70
65568;DHT22;52211;50.154;8.682;2023-05-02T16:08:56;26.90;37.60
65568;DHT22;52211;50.154;8.682;2023-05-02T16:11:23;27.20;37.50
65568;DHT22;52211;50.154;8.682;2023-05-02T16:13:52;27.50;37.40
65568;DHT22;52211;50.154;8.682;2023-05-02T16:16:19;27.60;36.70
65568;DHT22;52211;50.154;8.682;2023-05-02T16:18:46;27.80;37.40
65568;DHT22;52211;50.154;8.682;2023-05-02T16:21:13;28.00;36.30
65568;DHT22;52211;50.154;8.682;2023-05-02T16:23:42;28.00;36.00
65568;DHT22;52211;50.154;8.682;2023-05-02T16:26:12;28.00;35.70
65568;DHT22;52211;50.154;8.682;2023-05-02T16:28:41;27.90;35.20
65568;DHT22;52211;50.154;8.682;2023-05-02T16:31:12;27.80;35.20
65568;DHT22;52211;50.154;8.682;2023-05-02T16:33:42;27.70;35.10
65568;DHT22;52211;50.154;8.682;2023-05-02T16:36:10;27.60;34.80
65568;DHT22;52211;50.154;8.682;2023-05-02T16:38:39;27.60;35.10